Terminal Aerodrome Forecast
Issued by NWS

Home | Current Version | Previous Version | Text Only | Print | Product List | Glossary On
Versions: 1 2 3 4 5 6 7 8 9 10 11 12 13 14
153
FTUS45 KGGW 220605 AAA
TAFSDY
TAF AMD
KSDY 220605Z 2206/2306 VRB04KT P6SM OVC008
      TEMPO 2208/2212 1SM BR OVC002
     FM221200 26008KT 1SM BR OVC005
     FM221700 26010KT P6SM BKN007
     FM230300 25005KT P6SM SCT007
     FM230500 24005KT P6SM BKN004=

USA.gov is the U.S. government's official web portal to all federal, state and local government web resources and services.